Time,TemperatureF,DewpointF,PressureIn,WindDirection,WindDirectionDegrees,WindSpeedMPH,WindSpeedGustMPH,Humidity,HourlyPrecipIn,Conditions,Clouds,dailyrainin,SoftwareType,DateUTC
2013-02-05 00:00:00,36.5,21.6,30.13,NW,315,0.0,0.0,54,0.00,,,0.00,meteohub,2013-02-05 05:00:00,
2013-02-05 00:01:00,36.7,21.7,30.14,NW,315,0.0,0.0,54,0.00,,,0.00,meteohub,2013-02-05 05:01:00,
2013-02-05 00:06:00,36.7,21.7,30.14,NW,315,0.0,0.0,54,0.00,,,0.00,meteohub,2013-02-05 05:06:00,
2013-02-05 00:11:00,36.7,21.7,30.14,NW,315,0.0,0.0,54,0.00,,,0.00,meteohub,2013-02-05 05:11:00,
2013-02-05 00:16:00,36.7,21.7,30.13,NW,315,0.0,0.0,54,0.00,,,0.00,meteohub,2013-02-05 05:16:00,
2013-02-05 00:21:00,36.5,21.6,30.13,NW,315,0.0,0.0,54,0.00,,,0.00,meteohub,2013-02-05 05:21:00,
2013-02-05 00:26:00,36.5,21.6,30.13,NW,315,0.0,0.0,54,0.00,,,0.00,meteohub,2013-02-05 05:26:00,
2013-02-05 00:31:00,36.3,21.4,30.13,SE,135,0.0,2.0,54,0.00,,,0.00,meteohub,2013-02-05 05:31:00,
2013-02-05 00:36:00,36.0,21.2,30.13,SE,135,0.0,2.0,54,0.00,,,0.00,meteohub,2013-02-05 05:36:00,
2013-02-05 00:41:00,35.6,20.8,30.13,SE,135,0.0,2.0,54,0.00,,,0.00,meteohub,2013-02-05 05:41:00,
2013-02-05 00:46:00,35.2,20.5,30.13,SE,135,0.0,1.0,54,0.00,,,0.00,meteohub,2013-02-05 05:46:00,
2013-02-05 00:51:00,34.9,20.5,30.13,SE,135,0.0,1.0,55,0.00,,,0.00,meteohub,2013-02-05 05:51:00,
2013-02-05 00:56:00,34.5,20.7,30.13,SE,135,0.0,0.0,56,0.00,,,0.00,meteohub,2013-02-05 05:56:00,
2013-02-05 01:01:00,34.0,20.1,30.13,SE,135,0.0,0.0,56,0.00,,,0.00,meteohub,2013-02-05 06:01:00,
2013-02-05 01:06:00,33.6,19.8,30.13,SE,135,0.0,0.0,56,0.00,,,0.00,meteohub,2013-02-05 06:06:00,
2013-02-05 01:12:00,33.4,19.9,30.14,SE,135,0.0,0.0,57,0.00,,,0.00,meteohub,2013-02-05 06:12:00,
2013-02-05 01:17:00,33.1,19.8,30.14,SE,135,0.0,0.0,57,0.00,,,0.00,meteohub,2013-02-05 06:17:00,
2013-02-05 01:22:00,32.7,19.8,30.14,SE,135,0.0,0.0,58,0.00,,,0.00,meteohub,2013-02-05 06:22:00,
2013-02-05 01:27:00,32.5,19.6,30.14,SE,135,0.0,0.0,58,0.00,,,0.00,meteohub,2013-02-05 06:27:00,
2013-02-05 01:32:00,32.4,19.4,30.14,SE,135,0.0,0.0,58,0.00,,,0.00,meteohub,2013-02-05 06:32:00,
2013-02-05 01:37:00,32.0,19.4,30.14,SE,135,0.0,0.0,59,0.00,,,0.00,meteohub,2013-02-05 06:37:00,
2013-02-05 01:42:00,31.6,19.2,30.14,SE,135,0.0,0.0,59,0.00,,,0.00,meteohub,2013-02-05 06:42:00,
2013-02-05 01:47:00,31.5,19.0,30.14,SE,135,0.0,0.0,59,0.00,,,0.00,meteohub,2013-02-05 06:47:00,
2013-02-05 01:52:00,31.1,18.7,30.14,SE,135,0.0,0.0,59,0.00,,,0.00,meteohub,2013-02-05 06:52:00,
2013-02-05 01:57:00,30.9,18.5,30.14,SE,135,0.0,0.0,59,0.00,,,0.00,meteohub,2013-02-05 06:57:00,
2013-02-05 02:02:00,30.7,18.7,30.14,SE,135,0.0,0.0,60,0.00,,,0.00,meteohub,2013-02-05 07:02:00,
2013-02-05 02:07:00,30.4,18.3,30.14,SE,135,0.0,0.0,60,0.00,,,0.00,meteohub,2013-02-05 07:07:00,
2013-02-05 02:12:00,30.2,18.5,30.14,SE,135,0.0,0.0,61,0.00,,,0.00,meteohub,2013-02-05 07:12:00,
2013-02-05 02:17:00,30.0,18.3,30.14,SE,135,0.0,0.0,61,0.00,,,0.00,meteohub,2013-02-05 07:17:00,
2013-02-05 02:22:00,30.0,18.3,30.14,SE,135,0.0,0.0,61,0.00,,,0.00,meteohub,2013-02-05 07:22:00,
2013-02-05 02:27:00,29.7,18.0,30.14,SE,135,0.0,0.0,61,0.00,,,0.00,meteohub,2013-02-05 07:27:00,
2013-02-05 02:32:00,29.7,18.0,30.14,SE,135,0.0,0.0,61,0.00,,,0.00,meteohub,2013-02-05 07:32:00,
2013-02-05 02:37:00,29.8,18.7,30.14,SE,135,0.0,0.0,62,0.00,,,0.00,meteohub,2013-02-05 07:37:00,
2013-02-05 02:42:00,29.8,18.7,30.14,SE,135,0.0,0.0,62,0.00,,,0.00,meteohub,2013-02-05 07:42:00,
2013-02-05 02:47:00,30.0,18.7,30.13,SE,135,0.0,0.0,62,0.00,,,0.00,meteohub,2013-02-05 07:47:00,
2013-02-05 02:53:00,30.0,18.7,30.13,SE,135,0.0,0.0,62,0.00,,,0.00,meteohub,2013-02-05 07:53:00,
2013-02-05 02:58:00,30.2,19.2,30.13,SE,135,0.0,0.0,63,0.00,,,0.00,meteohub,2013-02-05 07:58:00,
2013-02-05 03:03:00,30.2,18.9,30.13,SE,135,0.0,0.0,62,0.00,,,0.00,meteohub,2013-02-05 08:03:00,
2013-02-05 03:08:00,30.2,19.2,30.13,SE,135,0.0,0.0,63,0.00,,,0.00,meteohub,2013-02-05 08:08:00,
2013-02-05 03:13:00,29.8,18.7,30.13,SE,135,0.0,0.0,62,0.00,,,0.00,meteohub,2013-02-05 08:13:00,
2013-02-05 03:18:00,29.8,18.7,30.12,SE,135,0.0,0.0,62,0.00,,,0.00,meteohub,2013-02-05 08:18:00,
2013-02-05 03:23:00,29.8,19.0,30.13,SE,135,0.0,0.0,63,0.00,,,0.00,meteohub,2013-02-05 08:23:00,
2013-02-05 03:29:00,29.8,19.0,30.12,SE,135,0.0,0.0,63,0.00,,,0.00,meteohub,2013-02-05 08:29:00,
2013-02-05 03:34:00,30.0,19.2,30.12,SE,135,0.0,0.0,63,0.00,,,0.00,meteohub,2013-02-05 08:34:00,
2013-02-05 03:39:00,30.2,19.2,30.12,SE,135,0.0,0.0,63,0.00,,,0.00,meteohub,2013-02-05 08:39:00,
2013-02-05 03:44:00,30.4,19.4,30.12,SE,135,0.0,1.0,63,0.00,,,0.00,meteohub,2013-02-05 08:44:00,
2013-02-05 03:49:00,30.6,19.9,30.11,SE,135,0.0,1.0,64,0.00,,,0.00,meteohub,2013-02-05 08:49:00,
2013-02-05 03:54:00,30.7,20.1,30.11,SE,135,0.0,1.0,64,0.00,,,0.00,meteohub,2013-02-05 08:54:00,
2013-02-05 03:59:00,30.9,20.3,30.11,SE,135,0.0,0.0,64,0.00,,,0.00,meteohub,2013-02-05 08:59:00,
2013-02-05 04:04:00,30.9,20.3,30.11,SE,135,0.0,0.0,64,0.00,,,0.00,meteohub,2013-02-05 09:04:00,
2013-02-05 04:09:00,31.3,20.7,30.11,NE,45,1.0,0.0,64,0.00,,,0.00,meteohub,2013-02-05 09:09:00,
2013-02-05 04:14:00,31.5,20.8,30.12,NE,45,0.0,1.0,64,0.00,,,0.00,meteohub,2013-02-05 09:14:00,
2013-02-05 04:19:00,31.6,21.0,30.12,NE,45,2.0,2.0,64,0.00,,,0.00,meteohub,2013-02-05 09:19:00,
2013-02-05 04:25:00,31.8,21.2,30.12,NE,45,0.0,1.0,64,0.00,,,0.00,meteohub,2013-02-05 09:25:00,
2013-02-05 04:30:00,32.0,21.4,30.12,NE,45,1.0,2.0,64,0.00,,,0.00,meteohub,2013-02-05 09:30:00,
2013-02-05 04:35:00,32.0,21.4,30.12,NE,45,0.0,2.0,64,0.00,,,0.00,meteohub,2013-02-05 09:35:00,
2013-02-05 04:40:00,32.2,21.6,30.11,NE,45,0.0,2.0,64,0.00,,,0.00,meteohub,2013-02-05 09:40:00,
2013-02-05 04:45:00,32.4,21.7,30.11,NE,45,2.0,2.0,64,0.00,,,0.00,meteohub,2013-02-05 09:45:00,
2013-02-05 04:50:00,32.5,21.9,30.11,NE,45,0.0,2.0,64,0.00,,,0.00,meteohub,2013-02-05 09:50:00,
2013-02-05 04:55:00,32.7,22.1,30.11,NE,45,0.0,2.0,64,0.00,,,0.00,meteohub,2013-02-05 09:55:00,
2013-02-05 05:00:00,32.7,22.1,30.11,NE,45,0.0,2.0,64,0.00,,,0.00,meteohub,2013-02-05 10:00:00,
2013-02-05 05:05:00,32.7,22.1,30.11,NE,45,0.0,1.0,64,0.00,,,0.00,meteohub,2013-02-05 10:05:00,
2013-02-05 05:10:00,32.9,22.3,30.11,NE,45,0.0,1.0,64,0.00,,,0.00,meteohub,2013-02-05 10:10:00,
2013-02-05 05:15:00,32.9,22.3,30.11,NE,45,0.0,1.0,64,0.00,,,0.00,meteohub,2013-02-05 10:15:00,
2013-02-05 05:21:00,32.9,21.9,30.11,NE,45,0.0,1.0,63,0.00,,,0.00,meteohub,2013-02-05 10:21:00,
2013-02-05 05:26:00,33.1,22.5,30.12,NE,45,0.0,0.0,64,0.00,,,0.00,meteohub,2013-02-05 10:26:00,
2013-02-05 05:31:00,33.3,22.6,30.12,NE,45,0.0,0.0,64,0.00,,,0.00,meteohub,2013-02-05 10:31:00,
2013-02-05 05:36:00,33.4,22.8,30.11,NE,45,0.0,0.0,64,0.00,,,0.00,meteohub,2013-02-05 10:36:00,
2013-02-05 05:41:00,33.6,22.6,30.11,NE,45,2.0,0.0,63,0.00,,,0.00,meteohub,2013-02-05 10:41:00,
2013-02-05 05:46:00,33.8,22.6,30.11,NE,45,0.0,2.0,63,0.00,,,0.00,meteohub,2013-02-05 10:46:00,
2013-02-05 05:51:00,34.0,22.8,30.12,NE,45,0.0,2.0,63,0.00,,,0.00,meteohub,2013-02-05 10:51:00,
2013-02-05 05:56:00,34.0,22.8,30.11,NE,45,0.0,2.0,63,0.00,,,0.00,meteohub,2013-02-05 10:56:00,
2013-02-05 06:01:00,34.2,23.0,30.12,NE,45,0.0,1.0,63,0.00,,,0.00,meteohub,2013-02-05 11:01:00,
2013-02-05 06:06:00,34.2,23.0,30.12,NE,45,0.0,1.0,63,0.00,,,0.00,meteohub,2013-02-05 11:06:00,
2013-02-05 06:11:00,34.3,22.8,30.12,NE,45,0.0,0.0,62,0.00,,,0.00,meteohub,2013-02-05 11:11:00,
2013-02-05 06:16:00,34.5,23.0,30.12,NE,45,0.0,0.0,62,0.00,,,0.00,meteohub,2013-02-05 11:16:00,
2013-02-05 06:21:00,34.5,23.0,30.12,NE,45,0.0,0.0,62,0.00,,,0.00,meteohub,2013-02-05 11:21:00,
2013-02-05 06:26:00,34.5,22.6,30.12,NE,45,0.0,1.0,61,0.00,,,0.00,meteohub,2013-02-05 11:26:00,
2013-02-05 06:31:00,34.5,22.6,30.12,NE,45,0.0,1.0,61,0.00,,,0.00,meteohub,2013-02-05 11:31:00,
2013-02-05 06:37:00,34.5,22.6,30.12,NE,45,0.0,1.0,61,0.00,,,0.00,meteohub,2013-02-05 11:37:00,
2013-02-05 06:42:00,34.7,22.8,30.13,NE,45,0.0,1.0,61,0.00,,,0.00,meteohub,2013-02-05 11:42:00,
2013-02-05 06:47:00,34.7,22.8,30.12,NE,45,0.0,2.0,61,0.00,,,0.00,meteohub,2013-02-05 11:47:00,
2013-02-05 06:52:00,34.9,23.0,30.12,NE,45,0.0,2.0,61,0.00,,,0.00,meteohub,2013-02-05 11:52:00,
2013-02-05 06:57:00,35.1,23.2,30.12,NE,45,1.0,2.0,61,0.00,,,0.00,meteohub,2013-02-05 11:57:00,
2013-02-05 07:02:00,35.1,23.2,30.12,NE,45,1.0,2.0,61,0.00,,,0.00,meteohub,2013-02-05 12:02:00,
2013-02-05 07:07:00,35.1,23.2,30.12,NE,45,1.0,2.0,61,0.00,,,0.00,meteohub,2013-02-05 12:07:00,
2013-02-05 07:12:00,35.4,23.5,30.12,NE,45,0.0,2.0,61,0.00,,,0.00,meteohub,2013-02-05 12:12:00,
2013-02-05 07:17:00,35.6,23.7,30.13,NE,45,0.0,1.0,61,0.00,,,0.00,meteohub,2013-02-05 12:17:00,
2013-02-05 07:22:00,35.6,23.7,30.13,NE,45,0.0,1.0,61,0.00,,,0.00,meteohub,2013-02-05 12:22:00,
2013-02-05 07:27:00,35.8,23.9,30.13,NE,45,0.0,0.0,61,0.00,,,0.00,meteohub,2013-02-05 12:27:00,
2013-02-05 07:32:00,35.8,23.9,30.14,NE,45,0.0,0.0,61,0.00,,,0.00,meteohub,2013-02-05 12:32:00,
2013-02-05 07:37:00,36.0,24.1,30.14,NE,45,0.0,0.0,61,0.00,,,0.00,meteohub,2013-02-05 12:37:00,
2013-02-05 07:42:00,36.0,24.1,30.14,NE,45,0.0,0.0,61,0.00,,,0.00,meteohub,2013-02-05 12:42:00,
2013-02-05 07:47:00,36.1,24.3,30.15,NE,45,0.0,0.0,61,0.00,,,0.00,meteohub,2013-02-05 12:47:00,
2013-02-05 07:52:00,36.1,24.3,30.14,NE,45,1.0,0.0,61,0.00,,,0.00,meteohub,2013-02-05 12:52:00,
2013-02-05 07:57:00,36.3,24.3,30.14,NE,45,1.0,1.0,61,0.00,,,0.00,meteohub,2013-02-05 12:57:00,
2013-02-05 08:02:00,36.5,24.4,30.13,NE,45,0.0,2.0,61,0.00,,,0.00,meteohub,2013-02-05 13:02:00,
2013-02-05 08:07:00,36.7,24.6,30.14,NE,45,0.0,2.0,61,0.00,,,0.00,meteohub,2013-02-05 13:07:00,
2013-02-05 08:12:00,37.4,25.3,30.14,NE,45,0.0,2.0,61,0.00,,,0.00,meteohub,2013-02-05 13:12:00,
2013-02-05 08:17:00,37.6,25.5,30.14,NE,45,0.0,2.0,61,0.00,,,0.00,meteohub,2013-02-05 13:17:00,
2013-02-05 08:22:00,37.6,25.5,30.14,NE,45,0.0,2.0,61,0.00,,,0.00,meteohub,2013-02-05 13:22:00,
2013-02-05 08:27:00,37.6,24.8,30.14,North,0,0.0,0.0,59,0.00,,,0.00,meteohub,2013-02-05 13:27:00,
2013-02-05 08:32:00,37.8,25.0,30.14,North,0,0.0,2.0,59,0.00,,,0.00,meteohub,2013-02-05 13:32:00,
2013-02-05 08:37:00,37.9,25.2,30.14,East,90,0.0,2.0,59,0.00,,,0.00,meteohub,2013-02-05 13:37:00,
2013-02-05 08:42:00,37.9,25.2,30.14,East,90,0.0,2.0,59,0.00,,,0.00,meteohub,2013-02-05 13:42:00,
2013-02-05 08:47:00,38.1,25.3,30.14,East,90,0.0,0.0,59,0.00,,,0.00,meteohub,2013-02-05 13:47:00,
2013-02-05 08:52:00,38.1,25.3,30.14,East,90,0.0,2.0,59,0.00,,,0.00,meteohub,2013-02-05 13:52:00,
2013-02-05 08:57:00,38.3,25.5,30.14,East,90,0.0,2.0,59,0.00,,,0.00,meteohub,2013-02-05 13:57:00,
2013-02-05 09:02:00,38.5,25.3,30.14,East,90,0.0,2.0,58,0.00,,,0.00,meteohub,2013-02-05 14:02:00,
2013-02-05 09:07:00,38.5,25.3,30.14,East,90,0.0,1.0,58,0.00,,,0.00,meteohub,2013-02-05 14:07:00,
2013-02-05 09:12:00,39.2,25.5,30.15,East,90,0.0,0.0,57,0.00,,,0.00,meteohub,2013-02-05 14:12:00,
2013-02-05 09:17:00,39.2,25.5,30.15,East,90,0.0,0.0,57,0.00,,,0.00,meteohub,2013-02-05 14:17:00,
2013-02-05 09:22:00,39.4,25.7,30.15,North,0,0.0,0.0,57,0.00,,,0.00,meteohub,2013-02-05 14:22:00,
2013-02-05 09:27:00,39.6,25.9,30.15,North,0,0.0,0.0,57,0.00,,,0.00,meteohub,2013-02-05 14:27:00,
2013-02-05 09:32:00,39.7,26.1,30.15,North,0,0.0,0.0,57,0.00,,,0.00,meteohub,2013-02-05 14:32:00,
2013-02-05 09:37:00,39.9,26.1,30.15,North,0,0.0,0.0,57,0.00,,,0.00,meteohub,2013-02-05 14:37:00,
2013-02-05 09:42:00,40.3,26.4,30.15,North,0,0.0,0.0,57,0.00,,,0.00,meteohub,2013-02-05 14:42:00,
2013-02-05 09:47:00,40.6,26.8,30.14,North,0,0.0,0.0,57,0.00,,,0.00,meteohub,2013-02-05 14:47:00,
2013-02-05 09:52:00,41.0,26.6,30.14,NE,45,2.0,0.0,56,0.00,,,0.00,meteohub,2013-02-05 14:52:00,
2013-02-05 09:57:00,41.4,27.0,30.15,East,90,0.0,2.0,56,0.00,,,0.00,meteohub,2013-02-05 14:57:00,
2013-02-05 10:03:00,41.4,26.6,30.15,East,90,0.0,2.0,55,0.00,,,0.00,meteohub,2013-02-05 15:03:00,
2013-02-05 10:08:00,41.7,26.4,30.15,East,90,0.0,2.0,54,0.00,,,0.00,meteohub,2013-02-05 15:08:00,
2013-02-05 10:13:00,42.1,26.8,30.15,East,90,0.0,0.0,54,0.00,,,0.00,meteohub,2013-02-05 15:13:00,
2013-02-05 10:18:00,42.1,26.4,30.15,East,90,0.0,0.0,53,0.00,,,0.00,meteohub,2013-02-05 15:18:00,
2013-02-05 10:23:00,42.4,26.2,30.15,East,90,0.0,0.0,52,0.00,,,0.00,meteohub,2013-02-05 15:23:00,
2013-02-05 10:28:00,42.8,26.6,30.15,East,90,0.0,0.0,52,0.00,,,0.00,meteohub,2013-02-05 15:28:00,
2013-02-05 10:33:00,43.0,26.2,30.14,East,90,0.0,0.0,51,0.00,,,0.00,meteohub,2013-02-05 15:33:00,
2013-02-05 10:38:00,43.5,26.8,30.15,East,90,0.0,0.0,51,0.00,,,0.00,meteohub,2013-02-05 15:38:00,
2013-02-05 10:43:00,44.2,27.0,30.14,East,90,0.0,1.0,50,0.00,,,0.00,meteohub,2013-02-05 15:43:00,
2013-02-05 10:48:00,45.0,27.1,30.14,East,90,1.0,1.0,49,0.00,,,0.00,meteohub,2013-02-05 15:48:00,
2013-02-05 10:53:00,45.7,27.3,30.14,East,90,0.0,2.0,48,0.00,,,0.00,meteohub,2013-02-05 15:53:00,
2013-02-05 10:59:00,46.4,27.5,30.15,East,90,0.0,2.0,47,0.00,,,0.00,meteohub,2013-02-05 15:59:00,
2013-02-05 11:04:00,46.6,27.1,30.14,East,90,2.0,2.0,46,0.00,,,0.00,meteohub,2013-02-05 16:04:00,
2013-02-05 11:09:00,47.1,25.0,30.13,SE,135,1.0,2.0,41,0.00,,,0.00,meteohub,2013-02-05 16:09:00,
2013-02-05 11:14:00,47.8,25.0,30.13,SW,225,1.0,2.0,40,0.00,,,0.00,meteohub,2013-02-05 16:14:00,
2013-02-05 11:19:00,48.2,21.6,30.13,SW,225,2.0,2.0,34,0.00,,,0.00,meteohub,2013-02-05 16:19:00,
2013-02-05 11:24:00,48.2,21.6,30.14,SW,225,2.0,3.0,34,0.00,,,0.00,meteohub,2013-02-05 16:24:00,
2013-02-05 11:29:00,48.0,21.4,30.13,SW,225,3.0,3.0,34,0.00,,,0.00,meteohub,2013-02-05 16:29:00,
2013-02-05 11:34:00,48.7,21.9,30.14,SW,225,2.0,3.0,34,0.00,,,0.00,meteohub,2013-02-05 16:34:00,
2013-02-05 11:39:00,48.9,21.4,30.14,SW,225,1.0,3.0,33,0.00,,,0.00,meteohub,2013-02-05 16:39:00,
2013-02-05 11:44:00,48.7,19.0,30.14,West,270,4.0,4.0,30,0.00,,,0.00,meteohub,2013-02-05 16:44:00,
2013-02-05 11:49:00,48.7,19.8,30.14,West,270,3.0,3.0,31,0.00,,,0.00,meteohub,2013-02-05 16:49:00,
2013-02-05 11:54:00,48.7,20.5,30.14,West,270,1.0,4.0,32,0.00,,,0.00,meteohub,2013-02-05 16:54:00,
2013-02-05 11:59:00,48.7,19.8,30.14,NW,315,2.0,4.0,31,0.00,,,0.00,meteohub,2013-02-05 16:59:00,
2013-02-05 12:05:00,48.6,19.6,30.14,SW,225,1.0,4.0,31,0.00,,,0.00,meteohub,2013-02-05 17:05:00,
2013-02-05 12:10:00,48.6,20.3,30.14,SW,225,2.0,3.0,32,0.00,,,0.00,meteohub,2013-02-05 17:10:00,
2013-02-05 12:15:00,48.4,20.1,30.14,West,270,2.0,3.0,32,0.00,,,0.00,meteohub,2013-02-05 17:15:00,
2013-02-05 12:20:00,48.6,21.0,30.14,South,180,1.0,3.0,33,0.00,,,0.00,meteohub,2013-02-05 17:20:00,
2013-02-05 12:25:00,48.7,20.5,30.14,West,270,3.0,3.0,32,0.00,,,0.00,meteohub,2013-02-05 17:25:00,
2013-02-05 12:30:00,48.7,21.2,30.14,SW,225,1.0,3.0,33,0.00,,,0.00,meteohub,2013-02-05 17:30:00,
2013-02-05 12:35:00,48.7,20.5,30.14,West,270,2.0,3.0,32,0.00,,,0.00,meteohub,2013-02-05 17:35:00,
2013-02-05 12:40:00,48.7,20.5,30.13,South,180,2.0,3.0,32,0.00,,,0.00,meteohub,2013-02-05 17:40:00,
2013-02-05 12:45:00,48.9,20.7,30.13,South,180,0.0,2.0,32,0.00,,,0.00,meteohub,2013-02-05 17:45:00,
2013-02-05 12:50:00,49.5,20.5,30.12,South,180,2.0,2.0,31,0.00,,,0.00,meteohub,2013-02-05 17:50:00,
2013-02-05 12:55:00,49.8,20.1,30.12,NE,45,2.0,2.0,30,0.00,,,0.00,meteohub,2013-02-05 17:55:00,
2013-02-05 13:00:00,49.6,19.2,30.12,East,90,4.0,4.0,29,0.00,,,0.00,meteohub,2013-02-05 18:00:00,
2013-02-05 13:05:00,49.6,19.2,30.12,NW,315,2.0,4.0,29,0.00,,,0.00,meteohub,2013-02-05 18:05:00,
2013-02-05 13:10:00,50.0,19.4,30.11,SW,225,2.0,4.0,29,0.00,,,0.00,meteohub,2013-02-05 18:10:00,
2013-02-05 13:15:00,50.7,20.1,30.11,South,180,1.0,4.0,29,0.00,,,0.00,meteohub,2013-02-05 18:15:00,
2013-02-05 13:21:00,51.4,18.1,30.11,NW,315,4.0,4.0,26,0.00,,,0.00,meteohub,2013-02-05 18:21:00,
2013-02-05 13:26:00,51.4,17.2,30.10,West,270,2.0,4.0,25,0.00,,,0.00,meteohub,2013-02-05 18:26:00,
2013-02-05 13:31:00,51.4,17.2,30.10,West,270,2.0,4.0,25,0.00,,,0.00,meteohub,2013-02-05 18:31:00,
2013-02-05 13:36:00,51.6,16.5,30.09,West,270,3.0,4.0,24,0.00,,,0.00,meteohub,2013-02-05 18:36:00,
2013-02-05 13:41:00,52.2,16.0,30.09,West,270,2.0,4.0,23,0.00,,,0.00,meteohub,2013-02-05 18:41:00,
2013-02-05 13:46:00,52.3,15.1,30.09,South,180,3.0,4.0,22,0.00,,,0.00,meteohub,2013-02-05 18:46:00,
2013-02-05 13:51:00,52.3,15.1,30.09,NW,315,2.0,4.0,22,0.00,,,0.00,meteohub,2013-02-05 18:51:00,
2013-02-05 13:56:00,52.0,15.8,30.09,North,0,2.0,4.0,23,0.00,,,0.00,meteohub,2013-02-05 18:56:00,
2013-02-05 14:01:00,51.8,17.6,30.09,West,270,3.0,4.0,25,0.00,,,0.00,meteohub,2013-02-05 19:01:00,
2013-02-05 14:06:00,52.0,16.7,30.08,West,270,4.0,5.0,24,0.00,,,0.00,meteohub,2013-02-05 19:06:00,
2013-02-05 14:11:00,52.0,17.8,30.09,NW,315,2.0,5.0,25,0.00,,,0.00,meteohub,2013-02-05 19:11:00,
2013-02-05 14:16:00,52.2,19.6,30.09,West,270,2.0,4.0,27,0.00,,,0.00,meteohub,2013-02-05 19:16:00,
2013-02-05 14:21:00,52.3,18.9,30.09,East,90,2.0,4.0,26,0.00,,,0.00,meteohub,2013-02-05 19:21:00,
2013-02-05 14:26:00,52.5,19.0,30.09,SE,135,2.0,3.0,26,0.00,,,0.00,meteohub,2013-02-05 19:26:00,
2013-02-05 14:32:00,52.9,18.5,30.08,West,270,2.0,3.0,25,0.00,,,0.00,meteohub,2013-02-05 19:32:00,
2013-02-05 14:37:00,53.2,19.8,30.08,SE,135,1.0,3.0,26,0.00,,,0.00,meteohub,2013-02-05 19:37:00,
2013-02-05 14:42:00,53.4,18.0,30.08,NE,45,6.0,6.0,24,0.00,,,0.00,meteohub,2013-02-05 19:42:00,
2013-02-05 14:47:00,53.4,19.0,30.08,WNW,293,4.0,6.0,25,0.00,,,0.00,meteohub,2013-02-05 19:47:00,
2013-02-05 14:52:00,53.4,19.0,30.08,West,270,3.0,6.0,25,0.00,,,0.00,meteohub,2013-02-05 19:52:00,
2013-02-05 14:57:00,53.6,19.9,30.08,South,180,1.0,6.0,26,0.00,,,0.00,meteohub,2013-02-05 19:57:00,
2013-02-05 15:02:00,53.6,19.9,30.08,North,0,2.0,4.0,26,0.00,,,0.00,meteohub,2013-02-05 20:02:00,
2013-02-05 15:07:00,53.6,20.8,30.08,SE,135,2.0,4.0,27,0.00,,,0.00,meteohub,2013-02-05 20:07:00,
2013-02-05 15:12:00,53.6,19.9,30.08,West,270,2.0,4.0,26,0.00,,,0.00,meteohub,2013-02-05 20:12:00,
2013-02-05 15:17:00,54.1,21.4,30.08,NW,315,3.0,4.0,27,0.00,,,0.00,meteohub,2013-02-05 20:17:00,
2013-02-05 15:22:00,54.3,20.7,30.08,West,270,4.0,4.0,26,0.00,,,0.00,meteohub,2013-02-05 20:22:00,
2013-02-05 15:27:00,54.3,19.8,30.07,West,270,2.0,4.0,25,0.00,,,0.00,meteohub,2013-02-05 20:27:00,
2013-02-05 15:32:00,54.5,20.8,30.07,West,270,4.0,4.0,26,0.00,,,0.00,meteohub,2013-02-05 20:32:00,
2013-02-05 15:38:00,54.5,20.8,30.06,West,270,3.0,4.0,26,0.00,,,0.00,meteohub,2013-02-05 20:38:00,
2013-02-05 15:43:00,54.7,21.0,30.07,West,270,2.0,4.0,26,0.00,,,0.00,meteohub,2013-02-05 20:43:00,
2013-02-05 15:48:00,54.7,21.9,30.07,North,0,4.0,4.0,27,0.00,,,0.00,meteohub,2013-02-05 20:48:00,
2013-02-05 15:53:00,54.7,22.6,30.07,WNW,293,2.0,4.0,28,0.00,,,0.00,meteohub,2013-02-05 20:53:00,
2013-02-05 15:58:00,54.9,23.7,30.06,SW,225,2.0,4.0,29,0.00,,,0.00,meteohub,2013-02-05 20:58:00,
2013-02-05 16:03:00,55.0,23.9,30.06,West,270,2.0,5.0,29,0.00,,,0.00,meteohub,2013-02-05 21:03:00,
2013-02-05 16:08:00,55.0,23.9,30.06,NW,315,2.0,5.0,29,0.00,,,0.00,meteohub,2013-02-05 21:08:00,
2013-02-05 16:13:00,55.0,24.6,30.06,West,270,2.0,3.0,30,0.00,,,0.00,meteohub,2013-02-05 21:13:00,
2013-02-05 16:18:00,55.0,24.6,30.06,West,270,2.0,3.0,30,0.00,,,0.00,meteohub,2013-02-05 21:18:00,
2013-02-05 16:23:00,55.2,24.1,30.06,SE,135,0.0,3.0,29,0.00,,,0.00,meteohub,2013-02-05 21:23:00,
2013-02-05 16:28:00,55.4,25.0,30.06,SE,135,0.0,3.0,30,0.00,,,0.00,meteohub,2013-02-05 21:28:00,
2013-02-05 16:33:00,55.8,25.3,30.06,SE,135,0.0,2.0,30,0.00,,,0.00,meteohub,2013-02-05 21:33:00,
2013-02-05 16:38:00,56.1,24.8,30.06,SE,135,1.0,2.0,29,0.00,,,0.00,meteohub,2013-02-05 21:38:00,
2013-02-05 16:44:00,56.1,24.8,30.06,East,90,0.0,1.0,29,0.00,,,0.00,meteohub,2013-02-05 21:44:00,
2013-02-05 16:49:00,55.8,24.4,30.06,East,90,1.0,2.0,29,0.00,,,0.00,meteohub,2013-02-05 21:49:00,
2013-02-05 16:54:00,55.6,25.2,30.06,SE,135,0.0,2.0,30,0.00,,,0.00,meteohub,2013-02-05 21:54:00,
2013-02-05 16:59:00,55.4,27.1,30.06,West,270,2.0,2.0,33,0.00,,,0.00,meteohub,2013-02-05 21:59:00,
2013-02-05 17:04:00,55.2,27.0,30.06,West,270,1.0,2.0,33,0.00,,,0.00,meteohub,2013-02-05 22:04:00,
2013-02-05 17:09:00,55.0,28.9,30.06,SW,225,3.0,3.0,36,0.00,,,0.00,meteohub,2013-02-05 22:09:00,
2013-02-05 17:14:00,55.2,29.1,30.06,SW,225,2.0,2.0,36,0.00,,,0.00,meteohub,2013-02-05 22:14:00,
2013-02-05 17:19:00,55.2,29.7,30.06,SW,225,2.0,3.0,37,0.00,,,0.00,meteohub,2013-02-05 22:19:00,
2013-02-05 17:24:00,55.0,29.5,30.06,West,270,1.0,3.0,37,0.00,,,0.00,meteohub,2013-02-05 22:24:00,
2013-02-05 17:29:00,54.9,30.0,30.06,West,270,2.0,4.0,38,0.00,,,0.00,meteohub,2013-02-05 22:29:00,
2013-02-05 17:34:00,54.7,30.6,30.07,West,270,2.0,4.0,39,0.00,,,0.00,meteohub,2013-02-05 22:34:00,
2013-02-05 17:39:00,54.5,30.4,30.07,West,270,2.0,4.0,39,0.00,,,0.00,meteohub,2013-02-05 22:39:00,
2013-02-05 17:44:00,54.5,30.9,30.07,West,270,2.0,3.0,40,0.00,,,0.00,meteohub,2013-02-05 22:44:00,
2013-02-05 17:50:00,54.5,30.9,30.07,South,180,2.0,3.0,40,0.00,,,0.00,meteohub,2013-02-05 22:50:00,
2013-02-05 17:55:00,54.3,30.9,30.07,SSW,203,2.0,3.0,40,0.00,,,0.00,meteohub,2013-02-05 22:55:00,
2013-02-05 18:00:00,54.1,31.3,30.07,WSW,248,0.0,3.0,41,0.00,,,0.00,meteohub,2013-02-05 23:00:00,
2013-02-05 18:05:00,54.1,31.3,30.07,WSW,248,0.0,3.0,41,0.00,,,0.00,meteohub,2013-02-05 23:05:00,
2013-02-05 18:10:00,53.6,30.7,30.07,WSW,248,0.0,3.0,41,0.00,,,0.00,meteohub,2013-02-05 23:10:00,
2013-02-05 18:15:00,53.2,31.1,30.07,WSW,248,0.0,3.0,42,0.00,,,0.00,meteohub,2013-02-05 23:15:00,
2013-02-05 18:20:00,52.9,30.7,30.07,WSW,248,0.0,1.0,42,0.00,,,0.00,meteohub,2013-02-05 23:20:00,
2013-02-05 18:25:00,52.7,31.6,30.08,WSW,248,0.0,1.0,44,0.00,,,0.00,meteohub,2013-02-05 23:25:00,
2013-02-05 18:30:00,52.5,31.6,30.08,WSW,248,0.0,0.0,44,0.00,,,0.00,meteohub,2013-02-05 23:30:00,
2013-02-05 18:35:00,52.2,31.8,30.08,WSW,248,0.0,0.0,45,0.00,,,0.00,meteohub,2013-02-05 23:35:00,
2013-02-05 18:40:00,52.0,31.6,30.08,WSW,248,0.0,1.0,45,0.00,,,0.00,meteohub,2013-02-05 23:40:00,
2013-02-05 18:45:00,51.8,32.0,30.08,WSW,248,0.0,1.0,46,0.00,,,0.00,meteohub,2013-02-05 23:45:00,
2013-02-05 18:50:00,51.6,32.4,30.09,WSW,248,0.0,1.0,47,0.00,,,0.00,meteohub,2013-02-05 23:50:00,
2013-02-05 18:55:00,51.4,32.2,30.09,WSW,248,0.0,0.0,47,0.00,,,0.00,meteohub,2013-02-05 23:55:00,
2013-02-05 19:00:00,51.3,32.5,30.08,WSW,248,0.0,0.0,48,0.00,,,0.00,meteohub,2013-02-06 00:00:00,
2013-02-05 19:06:00,51.3,32.5,30.09,WSW,248,0.0,0.0,48,0.00,,,0.00,meteohub,2013-02-06 00:06:00,
2013-02-05 19:10:00,50.7,32.5,30.09,WSW,248,0.0,0.0,49,0.00,,,0.00,meteohub,2013-02-06 00:10:00,
2013-02-05 19:16:00,50.7,33.1,30.09,WSW,248,0.0,0.0,50,0.00,,,0.00,meteohub,2013-02-06 00:16:00,
2013-02-05 19:21:00,50.7,33.6,30.10,WSW,248,1.0,1.0,51,0.00,,,0.00,meteohub,2013-02-06 00:21:00,
2013-02-05 19:26:00,50.5,33.4,30.09,WSW,248,0.0,1.0,51,0.00,,,0.00,meteohub,2013-02-06 00:26:00,
2013-02-05 19:31:00,50.4,33.3,30.09,WSW,248,0.0,1.0,51,0.00,,,0.00,meteohub,2013-02-06 00:31:00,
2013-02-05 19:36:00,50.2,33.6,30.09,WSW,248,0.0,1.0,52,0.00,,,0.00,meteohub,2013-02-06 00:36:00,
2013-02-05 19:41:00,50.2,34.0,30.10,WSW,248,0.0,0.0,53,0.00,,,0.00,meteohub,2013-02-06 00:41:00,
2013-02-05 19:46:00,50.2,34.0,30.10,WSW,248,0.0,0.0,53,0.00,,,0.00,meteohub,2013-02-06 00:46:00,
2013-02-05 19:51:00,50.0,33.8,30.10,WSW,248,0.0,0.0,53,0.00,,,0.00,meteohub,2013-02-06 00:51:00,
2013-02-05 19:56:00,50.0,33.8,30.10,WSW,248,0.0,1.0,53,0.00,,,0.00,meteohub,2013-02-06 00:56:00,
2013-02-05 20:01:00,50.0,34.3,30.10,WSW,248,0.0,1.0,54,0.00,,,0.00,meteohub,2013-02-06 01:01:00,
2013-02-05 20:06:00,50.0,34.3,30.11,WSW,248,0.0,1.0,54,0.00,,,0.00,meteohub,2013-02-06 01:06:00,
2013-02-05 20:12:00,50.0,34.9,30.11,NW,315,0.0,0.0,55,0.00,,,0.00,meteohub,2013-02-06 01:12:00,
2013-02-05 20:17:00,49.8,35.1,30.11,NW,315,0.0,0.0,56,0.00,,,0.00,meteohub,2013-02-06 01:17:00,
2013-02-05 20:22:00,49.6,34.9,30.11,NW,315,0.0,0.0,56,0.00,,,0.00,meteohub,2013-02-06 01:22:00,
2013-02-05 20:27:00,49.6,35.4,30.11,NW,315,0.0,0.0,57,0.00,,,0.00,meteohub,2013-02-06 01:27:00,
2013-02-05 20:32:00,49.6,35.2,30.12,NW,315,0.0,0.0,57,0.00,,,0.00,meteohub,2013-02-06 01:32:00,
2013-02-05 20:37:00,49.3,34.3,30.11,NW,315,0.0,0.0,56,0.00,,,0.00,meteohub,2013-02-06 01:37:00,
2013-02-05 20:42:00,48.9,34.5,30.12,NW,315,0.0,0.0,57,0.00,,,0.00,meteohub,2013-02-06 01:42:00,
2013-02-05 20:47:00,48.7,34.3,30.12,NW,315,0.0,0.0,57,0.00,,,0.00,meteohub,2013-02-06 01:47:00,
2013-02-05 20:52:00,48.6,34.7,30.12,NW,315,0.0,0.0,58,0.00,,,0.00,meteohub,2013-02-06 01:52:00,
2013-02-05 20:57:00,48.2,34.3,30.12,NW,315,0.0,0.0,58,0.00,,,0.00,meteohub,2013-02-06 01:57:00,
2013-02-05 21:02:00,48.0,34.2,30.12,NW,315,0.0,0.0,58,0.00,,,0.00,meteohub,2013-02-06 02:02:00,
2013-02-05 21:07:00,47.3,33.8,30.13,NW,315,0.0,0.0,59,0.00,,,0.00,meteohub,2013-02-06 02:07:00,
2013-02-05 21:12:00,47.1,33.6,30.12,NW,315,0.0,0.0,59,0.00,,,0.00,meteohub,2013-02-06 02:12:00,
2013-02-05 21:17:00,46.6,33.3,30.13,NW,315,0.0,0.0,59,0.00,,,0.00,meteohub,2013-02-06 02:17:00,
2013-02-05 21:22:00,46.2,33.3,30.13,NW,315,0.0,0.0,60,0.00,,,0.00,meteohub,2013-02-06 02:22:00,
2013-02-05 21:27:00,46.0,33.4,30.13,NW,315,0.0,0.0,61,0.00,,,0.00,meteohub,2013-02-06 02:27:00,
2013-02-05 21:32:00,45.9,33.3,30.13,NW,315,0.0,0.0,61,0.00,,,0.00,meteohub,2013-02-06 02:32:00,
2013-02-05 21:37:00,45.3,32.9,30.13,NW,315,0.0,0.0,61,0.00,,,0.00,meteohub,2013-02-06 02:37:00,
2013-02-05 21:43:00,45.0,32.5,30.13,NW,315,0.0,0.0,61,0.00,,,0.00,meteohub,2013-02-06 02:43:00,
2013-02-05 21:48:00,44.6,32.5,30.13,NW,315,0.0,0.0,62,0.00,,,0.00,meteohub,2013-02-06 02:48:00,
2013-02-05 21:53:00,44.2,32.5,30.14,NW,315,0.0,0.0,63,0.00,,,0.00,meteohub,2013-02-06 02:53:00,
2013-02-05 21:58:00,43.9,32.4,30.14,NW,315,0.0,0.0,63,0.00,,,0.00,meteohub,2013-02-06 02:58:00,
2013-02-05 22:03:00,43.7,32.2,30.14,NW,315,0.0,0.0,63,0.00,,,0.00,meteohub,2013-02-06 03:03:00,
2013-02-05 22:08:00,43.2,32.0,30.14,NW,315,0.0,0.0,64,0.00,,,0.00,meteohub,2013-02-06 03:08:00,
2013-02-05 22:13:00,42.8,31.6,30.15,NW,315,0.0,0.0,64,0.00,,,0.00,meteohub,2013-02-06 03:13:00,
2013-02-05 22:18:00,42.6,31.8,30.15,NW,315,0.0,2.0,65,0.00,,,0.00,meteohub,2013-02-06 03:18:00,
2013-02-05 22:23:00,42.1,30.9,30.15,NW,315,0.0,2.0,64,0.00,,,0.00,meteohub,2013-02-06 03:23:00,
2013-02-05 22:28:00,41.9,30.7,30.15,NW,315,0.0,2.0,64,0.00,,,0.00,meteohub,2013-02-06 03:28:00,
2013-02-05 22:33:00,41.5,30.4,30.16,NW,315,0.0,1.0,64,0.00,,,0.00,meteohub,2013-02-06 03:33:00,
2013-02-05 22:38:00,41.2,30.0,30.16,NW,315,0.0,1.0,64,0.00,,,0.00,meteohub,2013-02-06 03:38:00,
2013-02-05 22:43:00,41.2,30.6,30.16,NW,315,0.0,1.0,65,0.00,,,0.00,meteohub,2013-02-06 03:43:00,
2013-02-05 22:48:00,40.8,30.2,30.16,NW,315,0.0,1.0,65,0.00,,,0.00,meteohub,2013-02-06 03:48:00,
2013-02-05 22:53:00,40.5,29.8,30.16,NW,315,0.0,2.0,65,0.00,,,0.00,meteohub,2013-02-06 03:53:00,
2013-02-05 22:58:00,40.3,29.7,30.17,NW,315,0.0,2.0,65,0.00,,,0.00,meteohub,2013-02-06 03:58:00,
2013-02-05 23:03:00,40.3,30.0,30.16,NW,315,0.0,2.0,66,0.00,,,0.00,meteohub,2013-02-06 04:03:00,
2013-02-05 23:09:00,39.7,29.1,30.16,NW,315,0.0,0.0,65,0.00,,,0.00,meteohub,2013-02-06 04:09:00,
2013-02-05 23:14:00,39.6,29.3,30.16,NW,315,0.0,0.0,66,0.00,,,0.00,meteohub,2013-02-06 04:14:00,
2013-02-05 23:19:00,39.4,29.1,30.16,NW,315,0.0,0.0,66,0.00,,,0.00,meteohub,2013-02-06 04:19:00,
2013-02-05 23:24:00,39.0,28.8,30.17,NW,315,0.0,0.0,66,0.00,,,0.00,meteohub,2013-02-06 04:24:00,
2013-02-05 23:29:00,38.8,28.6,30.16,NW,315,0.0,0.0,66,0.00,,,0.00,meteohub,2013-02-06 04:29:00,
2013-02-05 23:34:00,38.7,28.4,30.16,NW,315,1.0,0.0,66,0.00,,,0.00,meteohub,2013-02-06 04:34:00,
2013-02-05 23:39:00,38.5,28.2,30.17,NW,315,0.0,1.0,66,0.00,,,0.00,meteohub,2013-02-06 04:39:00,
2013-02-05 23:44:00,38.3,28.0,30.17,NW,315,0.0,1.0,66,0.00,,,0.00,meteohub,2013-02-06 04:44:00,
2013-02-05 23:49:00,38.1,27.9,30.17,NW,315,0.0,1.0,66,0.00,,,0.00,meteohub,2013-02-06 04:49:00,
2013-02-05 23:54:00,38.1,27.9,30.17,NW,315,0.0,0.0,66,0.00,,,0.00,meteohub,2013-02-06 04:54:00,
2013-02-05 23:59:00,37.9,27.9,30.17,NW,315,0.0,0.0,66,0.00,,,0.00,meteohub,2013-02-06 04:59:00,